LTCM Airport Information

Runway Information
Airport Frequencies
Airport Navaids
Type VOR-DME Name Sinop Frequency 114000 KHZ
Type NDB Name Sinop Frequency 465 KHZ
Airport Weather Information & NOTAM
ADDS - METARS form results

(1805 UTC 18 March 2019)
Data provider http://aviationweather.gov/metar/data/
 
Forecast for: LTCM (SINOP AIRPORT , TR)
Text: TAF LTCM 181340Z 1815/1824 12014KT 9999 FEW030
Forecast period: 1500 UTC 18 March 2019 to 0000 UTC 19 March 2019
Forecast type: FROM: standard forecast or significant change
Winds: from the ESE (120 degrees) at 16 MPH (14 knots; 7.2 m/s)
Visibility: 6 or more miles 10+ km)
Ceiling: at least 12,000 feet AGL
Clouds: few clouds at 3000 feet AGL
Weather: no significant weather forecast for this period